sensor_id;sensor_type;location;lat;lon;timestamp;pressure;altitude;pressure_sealevel;temperature;humidity
51239;BME280;38154;47.548;18.828;2023-02-13T00:02:14;100804.81;;;0.45;100.00
51239;BME280;38154;47.548;18.828;2023-02-13T00:04:40;100806.03;;;0.38;100.00
51239;BME280;38154;47.548;18.828;2023-02-13T00:07:09;100808.41;;;0.47;100.00
51239;BME280;38154;47.548;18.828;2023-02-13T00:09:37;100805.28;;;0.39;100.00
51239;BME280;38154;47.548;18.828;2023-02-13T00:12:04;100806.16;;;0.40;100.00
51239;BME280;38154;47.548;18.828;2023-02-13T00:14:33;100809.72;;;0.42;100.00
51239;BME280;38154;47.548;18.828;2023-02-13T00:17:00;100816.66;;;0.43;100.00
51239;BME280;38154;47.548;18.828;2023-02-13T00:19:26;100810.44;;;0.51;100.00
51239;BME280;38154;47.548;18.828;2023-02-13T00:21:51;100822.91;;;0.46;100.00
51239;BME280;38154;47.548;18.828;2023-02-13T00:24:17;100813.13;;;0.52;100.00
51239;BME280;38154;47.548;18.828;2023-02-13T00:26:43;100814.56;;;0.49;100.00
51239;BME280;38154;47.548;18.828;2023-02-13T00:29:09;100815.78;;;0.54;100.00
51239;BME280;38154;47.548;18.828;2023-02-13T00:31:35;100828.16;;;0.48;100.00
51239;BME280;38154;47.548;18.828;2023-02-13T00:34:01;100826.72;;;0.51;100.00
51239;BME280;38154;47.548;18.828;2023-02-13T00:36:27;100821.16;;;0.57;100.00
51239;BME280;38154;47.548;18.828;2023-02-13T00:38:53;100826.25;;;0.45;100.00
51239;BME280;38154;47.548;18.828;2023-02-13T00:41:20;100832.06;;;0.43;100.00
51239;BME280;38154;47.548;18.828;2023-02-13T00:43:47;100836.63;;;0.47;100.00
51239;BME280;38154;47.548;18.828;2023-02-13T00:46:13;100826.59;;;0.50;100.00
51239;BME280;38154;47.548;18.828;2023-02-13T00:48:39;100823.50;;;0.54;100.00
51239;BME280;38154;47.548;18.828;2023-02-13T00:51:06;100830.84;;;0.49;100.00
51239;BME280;38154;47.548;18.828;2023-02-13T00:53:33;100825.94;;;0.41;100.00
51239;BME280;38154;47.548;18.828;2023-02-13T00:55:59;100818.09;;;0.39;99.58
51239;BME280;38154;47.548;18.828;2023-02-13T00:58:25;100815.44;;;0.37;99.06
51239;BME280;38154;47.548;18.828;2023-02-13T01:00:52;100820.09;;;0.31;99.43
51239;BME280;38154;47.548;18.828;2023-02-13T01:03:19;100819.19;;;0.31;99.51
51239;BME280;38154;47.548;18.828;2023-02-13T01:05:45;100821.31;;;0.36;98.65
51239;BME280;38154;47.548;18.828;2023-02-13T01:08:15;100822.78;;;0.33;99.01
51239;BME280;38154;47.548;18.828;2023-02-13T01:10:41;100812.63;;;0.34;98.80
51239;BME280;38154;47.548;18.828;2023-02-13T01:13:09;100807.38;;;0.33;99.37
51239;BME280;38154;47.548;18.828;2023-02-13T01:15:35;100815.19;;;0.34;99.94
51239;BME280;38154;47.548;18.828;2023-02-13T01:18:01;100814.19;;;0.32;99.95
51239;BME280;38154;47.548;18.828;2023-02-13T01:20:28;100821.78;;;0.31;100.00
51239;BME280;38154;47.548;18.828;2023-02-13T01:22:54;100817.75;;;0.34;100.00
51239;BME280;38154;47.548;18.828;2023-02-13T01:25:21;100808.38;;;0.35;100.00
51239;BME280;38154;47.548;18.828;2023-02-13T01:27:47;100810.06;;;0.34;100.00
51239;BME280;38154;47.548;18.828;2023-02-13T01:30:14;100810.06;;;0.34;100.00
51239;BME280;38154;47.548;18.828;2023-02-13T01:32:42;100806.28;;;0.41;100.00
51239;BME280;38154;47.548;18.828;2023-02-13T01:35:10;100805.63;;;0.44;100.00
51239;BME280;38154;47.548;18.828;2023-02-13T01:37:36;100802.03;;;0.42;100.00
51239;BME280;38154;47.548;18.828;2023-02-13T01:40:04;100802.38;;;0.46;100.00
51239;BME280;38154;47.548;18.828;2023-02-13T01:42:31;100799.69;;;0.45;100.00
51239;BME280;38154;47.548;18.828;2023-02-13T01:45:20;100802.25;;;0.33;100.00
51239;BME280;38154;47.548;18.828;2023-02-13T01:47:51;100806.37;;;0.31;100.00
51239;BME280;38154;47.548;18.828;2023-02-13T01:50:24;100803.47;;;0.26;100.00
51239;BME280;38154;47.548;18.828;2023-02-13T01:52:56;100806.81;;;0.25;100.00
51239;BME280;38154;47.548;18.828;2023-02-13T01:55:25;100805.66;;;0.22;100.00
51239;BME280;38154;47.548;18.828;2023-02-13T01:57:57;100803.75;;;0.07;100.00
51239;BME280;38154;47.548;18.828;2023-02-13T02:00:26;100805.16;;;-0.08;100.00
51239;BME280;38154;47.548;18.828;2023-02-13T02:03:06;100810.59;;;-0.38;100.00
51239;BME280;38154;47.548;18.828;2023-02-13T02:05:35;100799.59;;;-0.69;100.00
51239;BME280;38154;47.548;18.828;2023-02-13T02:08:04;100806.25;;;-0.93;100.00
51239;BME280;38154;47.548;18.828;2023-02-13T02:10:32;100800.19;;;-1.16;100.00
51239;BME280;38154;47.548;18.828;2023-02-13T02:13:11;100805.69;;;-1.21;100.00
51239;BME280;38154;47.548;18.828;2023-02-13T02:15:37;100799.47;;;-1.35;100.00
51239;BME280;38154;47.548;18.828;2023-02-13T02:18:09;100797.84;;;-1.55;100.00
51239;BME280;38154;47.548;18.828;2023-02-13T02:32:13;100796.41;;;-2.24;100.00
51239;BME280;38154;47.548;18.828;2023-02-13T02:34:53;100790.69;;;-2.31;100.00
51239;BME280;38154;47.548;18.828;2023-02-13T02:37:54;100788.47;;;-2.37;100.00
51239;BME280;38154;47.548;18.828;2023-02-13T02:40:45;100783.88;;;-2.41;100.00
51239;BME280;38154;47.548;18.828;2023-02-13T02:44:23;100787.88;;;-2.24;100.00
51239;BME280;38154;47.548;18.828;2023-02-13T02:50:33;100777.88;;;-2.42;100.00
51239;BME280;38154;47.548;18.828;2023-02-13T02:53:23;100783.34;;;-2.57;100.00
51239;BME280;38154;47.548;18.828;2023-02-13T02:56:16;100782.66;;;-2.65;100.00
51239;BME280;38154;47.548;18.828;2023-02-13T02:59:14;100776.06;;;-2.53;100.00
51239;BME280;38154;47.548;18.828;2023-02-13T03:02:02;100780.91;;;-2.56;100.00
51239;BME280;38154;47.548;18.828;2023-02-13T03:04:50;100783.59;;;-2.65;100.00
51239;BME280;38154;47.548;18.828;2023-02-13T03:07:36;100774.16;;;-2.55;100.00
51239;BME280;38154;47.548;18.828;2023-02-13T03:10:07;100781.19;;;-2.43;100.00
51239;BME280;38154;47.548;18.828;2023-02-13T03:13:11;100777.41;;;-2.17;100.00
51239;BME280;38154;47.548;18.828;2023-02-13T03:15:53;100778.44;;;-1.94;100.00
51239;BME280;38154;47.548;18.828;2023-02-13T03:18:44;100781.38;;;-1.69;100.00
51239;BME280;38154;47.548;18.828;2023-02-13T03:21:46;100781.59;;;-1.66;100.00
51239;BME280;38154;47.548;18.828;2023-02-13T03:25:28;100787.09;;;-1.72;100.00
51239;BME280;38154;47.548;18.828;2023-02-13T03:27:43;100782.50;;;-2.17;100.00
51239;BME280;38154;47.548;18.828;2023-02-13T03:30:40;100784.38;;;-2.35;100.00
51239;BME280;38154;47.548;18.828;2023-02-13T03:35:55;100791.31;;;-2.73;100.00
51239;BME280;38154;47.548;18.828;2023-02-13T03:38:56;100791.28;;;-2.84;100.00
51239;BME280;38154;47.548;18.828;2023-02-13T03:41:39;100784.44;;;-3.04;100.00
51239;BME280;38154;47.548;18.828;2023-02-13T03:44:17;100790.66;;;-3.10;100.00
51239;BME280;38154;47.548;18.828;2023-02-13T03:46:47;100783.38;;;-3.16;100.00
51239;BME280;38154;47.548;18.828;2023-02-13T03:49:22;100784.78;;;-3.20;100.00
51239;BME280;38154;47.548;18.828;2023-02-13T03:52:14;100780.41;;;-3.21;100.00
51239;BME280;38154;47.548;18.828;2023-02-13T03:57:43;100791.47;;;-3.30;100.00
51239;BME280;38154;47.548;18.828;2023-02-13T04:00:33;100786.06;;;-3.33;100.00
51239;BME280;38154;47.548;18.828;2023-02-13T04:05:42;100777.75;;;-3.41;100.00
51239;BME280;38154;47.548;18.828;2023-02-13T04:08:09;100778.66;;;-3.41;100.00
51239;BME280;38154;47.548;18.828;2023-02-13T04:10:44;100769.84;;;-3.44;100.00
51239;BME280;38154;47.548;18.828;2023-02-13T04:13:19;100783.34;;;-3.45;100.00
51239;BME280;38154;47.548;18.828;2023-02-13T04:15:55;100786.37;;;-3.49;100.00
51239;BME280;38154;47.548;18.828;2023-02-13T04:18:26;100781.88;;;-3.52;100.00
51239;BME280;38154;47.548;18.828;2023-02-13T04:20:53;100783.56;;;-3.52;100.00
51239;BME280;38154;47.548;18.828;2023-02-13T04:23:19;100779.47;;;-3.50;100.00
51239;BME280;38154;47.548;18.828;2023-02-13T04:25:48;100775.28;;;-3.50;100.00
51239;BME280;38154;47.548;18.828;2023-02-13T04:28:15;100775.16;;;-3.51;100.00
51239;BME280;38154;47.548;18.828;2023-02-13T04:30:41;100771.97;;;-3.49;100.00
51239;BME280;38154;47.548;18.828;2023-02-13T04:33:07;100774.12;;;-3.53;100.00
51239;BME280;38154;47.548;18.828;2023-02-13T04:35:33;100772.53;;;-3.62;100.00
51239;BME280;38154;47.548;18.828;2023-02-13T04:38:00;100771.09;;;-3.68;100.00
51239;BME280;38154;47.548;18.828;2023-02-13T04:40:26;100771.59;;;-3.53;100.00
51239;BME280;38154;47.548;18.828;2023-02-13T04:42:52;100772.31;;;-3.55;100.00
51239;BME280;38154;47.548;18.828;2023-02-13T04:45:18;100765.28;;;-3.57;100.00
51239;BME280;38154;47.548;18.828;2023-02-13T04:47:51;100762.72;;;-3.57;100.00
51239;BME280;38154;47.548;18.828;2023-02-13T04:50:17;100763.09;;;-3.63;100.00
51239;BME280;38154;47.548;18.828;2023-02-13T04:52:43;100766.37;;;-3.64;100.00
51239;BME280;38154;47.548;18.828;2023-02-13T04:55:09;100761.78;;;-3.68;100.00
51239;BME280;38154;47.548;18.828;2023-02-13T04:57:35;100758.81;;;-3.73;100.00
51239;BME280;38154;47.548;18.828;2023-02-13T05:00:03;100762.75;;;-3.76;100.00
51239;BME280;38154;47.548;18.828;2023-02-13T05:02:30;100769.09;;;-3.81;100.00
51239;BME280;38154;47.548;18.828;2023-02-13T05:04:56;100758.75;;;-3.83;100.00
51239;BME280;38154;47.548;18.828;2023-02-13T05:07:22;100762.31;;;-3.81;100.00
51239;BME280;38154;47.548;18.828;2023-02-13T05:09:48;100759.78;;;-3.81;100.00
51239;BME280;38154;47.548;18.828;2023-02-13T05:12:14;100755.31;;;-3.83;100.00
51239;BME280;38154;47.548;18.828;2023-02-13T05:14:39;100751.75;;;-3.85;100.00
51239;BME280;38154;47.548;18.828;2023-02-13T05:17:05;100765.97;;;-3.87;100.00
51239;BME280;38154;47.548;18.828;2023-02-13T05:19:31;100761.09;;;-3.95;100.00
51239;BME280;38154;47.548;18.828;2023-02-13T05:21:57;100758.19;;;-3.89;100.00
51239;BME280;38154;47.548;18.828;2023-02-13T05:24:42;100766.63;;;-3.90;100.00
51239;BME280;38154;47.548;18.828;2023-02-13T05:27:08;100763.50;;;-3.96;100.00
51239;BME280;38154;47.548;18.828;2023-02-13T05:29:33;100761.44;;;-4.00;100.00
51239;BME280;38154;47.548;18.828;2023-02-13T05:31:59;100762.94;;;-4.02;100.00
51239;BME280;38154;47.548;18.828;2023-02-13T05:34:26;100757.97;;;-4.01;100.00
51239;BME280;38154;47.548;18.828;2023-02-13T05:36:53;100756.66;;;-4.06;100.00
51239;BME280;38154;47.548;18.828;2023-02-13T05:39:19;100754.12;;;-4.06;100.00
51239;BME280;38154;47.548;18.828;2023-02-13T05:41:46;100758.13;;;-3.99;100.00
51239;BME280;38154;47.548;18.828;2023-02-13T05:44:12;100761.44;;;-4.00;100.00
51239;BME280;38154;47.548;18.828;2023-02-13T05:46:40;100761.63;;;-4.07;100.00
51239;BME280;38154;47.548;18.828;2023-02-13T05:49:07;100761.81;;;-4.15;100.00
51239;BME280;38154;47.548;18.828;2023-02-13T05:51:33;100770.25;;;-4.24;100.00
51239;BME280;38154;47.548;18.828;2023-02-13T05:54:00;100767.56;;;-4.26;100.00
51239;BME280;38154;47.548;18.828;2023-02-13T05:56:26;100763.06;;;-4.20;100.00
51239;BME280;38154;47.548;18.828;2023-02-13T05:58:53;100761.22;;;-4.12;100.00
51239;BME280;38154;47.548;18.828;2023-02-13T06:01:20;100767.19;;;-4.12;100.00
51239;BME280;38154;47.548;18.828;2023-02-13T06:03:46;100759.41;;;-4.13;100.00
51239;BME280;38154;47.548;18.828;2023-02-13T06:06:12;100773.19;;;-4.11;100.00
51239;BME280;38154;47.548;18.828;2023-02-13T06:08:38;100777.31;;;-4.03;100.00
51239;BME280;38154;47.548;18.828;2023-02-13T06:11:04;100778.34;;;-4.01;100.00
51239;BME280;38154;47.548;18.828;2023-02-13T06:13:30;100781.19;;;-3.98;100.00
51239;BME280;38154;47.548;18.828;2023-02-13T06:15:56;100781.34;;;-3.96;100.00
51239;BME280;38154;47.548;18.828;2023-02-13T06:18:22;100787.28;;;-3.87;100.00
51239;BME280;38154;47.548;18.828;2023-02-13T06:20:48;100795.19;;;-3.84;100.00
51239;BME280;38154;47.548;18.828;2023-02-13T06:23:15;100796.56;;;-3.87;100.00
51239;BME280;38154;47.548;18.828;2023-02-13T06:25:41;100792.97;;;-3.89;100.00
51239;BME280;38154;47.548;18.828;2023-02-13T06:28:07;100798.50;;;-3.85;100.00
51239;BME280;38154;47.548;18.828;2023-02-13T06:30:33;100794.78;;;-3.69;100.00
51239;BME280;38154;47.548;18.828;2023-02-13T06:32:59;100805.06;;;-3.59;100.00
51239;BME280;38154;47.548;18.828;2023-02-13T06:35:26;100796.94;;;-3.55;100.00
51239;BME280;38154;47.548;18.828;2023-02-13T06:37:52;100800.94;;;-3.48;100.00
51239;BME280;38154;47.548;18.828;2023-02-13T06:40:18;100802.03;;;-3.36;100.00
51239;BME280;38154;47.548;18.828;2023-02-13T06:42:44;100803.88;;;-3.25;100.00
51239;BME280;38154;47.548;18.828;2023-02-13T06:45:11;100809.78;;;-3.15;100.00
51239;BME280;38154;47.548;18.828;2023-02-13T06:47:45;100808.84;;;-2.97;100.00
51239;BME280;38154;47.548;18.828;2023-02-13T06:50:12;100804.06;;;-2.84;100.00
51239;BME280;38154;47.548;18.828;2023-02-13T06:52:39;100793.81;;;-2.54;100.00
51239;BME280;38154;47.548;18.828;2023-02-13T06:55:06;100795.03;;;-1.79;100.00
51239;BME280;38154;47.548;18.828;2023-02-13T06:57:32;100799.09;;;-0.09;100.00
51239;BME280;38154;47.548;18.828;2023-02-13T06:59:59;100805.53;;;1.87;100.00
51239;BME280;38154;47.548;18.828;2023-02-13T07:02:25;100813.03;;;3.83;92.77
51239;BME280;38154;47.548;18.828;2023-02-13T07:04:51;100816.87;;;4.92;80.30
51239;BME280;38154;47.548;18.828;2023-02-13T07:07:16;100817.13;;;5.43;76.00
51239;BME280;38154;47.548;18.828;2023-02-13T07:09:42;100822.03;;;6.19;72.04
51239;BME280;38154;47.548;18.828;2023-02-13T07:12:08;100822.78;;;7.03;67.39
51239;BME280;38154;47.548;18.828;2023-02-13T07:14:34;100815.69;;;7.73;63.30
51239;BME280;38154;47.548;18.828;2023-02-13T07:17:00;100820.22;;;8.37;60.57
51239;BME280;38154;47.548;18.828;2023-02-13T07:19:26;100818.91;;;8.87;57.60
51239;BME280;38154;47.548;18.828;2023-02-13T07:21:52;100820.59;;;9.08;56.56
51239;BME280;38154;47.548;18.828;2023-02-13T07:24:18;100820.81;;;9.58;54.91
51239;BME280;38154;47.548;18.828;2023-02-13T07:26:43;100828.81;;;10.09;52.77
51239;BME280;38154;47.548;18.828;2023-02-13T07:29:09;100821.72;;;10.81;51.13
51239;BME280;38154;47.548;18.828;2023-02-13T07:31:35;100821.13;;;11.15;49.86
51239;BME280;38154;47.548;18.828;2023-02-13T07:34:01;100818.91;;;11.56;48.40
51239;BME280;38154;47.548;18.828;2023-02-13T07:36:27;100825.03;;;11.87;47.15
51239;BME280;38154;47.548;18.828;2023-02-13T07:38:53;100822.72;;;12.28;45.81
51239;BME280;38154;47.548;18.828;2023-02-13T07:41:19;100817.88;;;12.75;43.75
51239;BME280;38154;47.548;18.828;2023-02-13T07:43:45;100821.38;;;13.11;44.04
51239;BME280;38154;47.548;18.828;2023-02-13T07:46:11;100822.72;;;13.31;41.85
51239;BME280;38154;47.548;18.828;2023-02-13T07:48:37;100823.78;;;13.38;41.26
51239;BME280;38154;47.548;18.828;2023-02-13T07:51:04;100830.66;;;13.72;40.48
51239;BME280;38154;47.548;18.828;2023-02-13T07:53:31;100827.56;;;13.92;40.69
51239;BME280;38154;47.548;18.828;2023-02-13T07:55:56;100833.81;;;13.99;40.17
51239;BME280;38154;47.548;18.828;2023-02-13T07:58:22;100839.28;;;14.55;38.88
51239;BME280;38154;47.548;18.828;2023-02-13T08:00:48;100833.53;;;14.29;39.14
51239;BME280;38154;47.548;18.828;2023-02-13T08:03:14;100841.28;;;14.67;38.48
51239;BME280;38154;47.548;18.828;2023-02-13T08:05:40;100836.25;;;14.34;39.11
51239;BME280;38154;47.548;18.828;2023-02-13T08:08:06;100833.25;;;14.59;38.12
51239;BME280;38154;47.548;18.828;2023-02-13T08:10:32;100834.47;;;14.78;38.31
51239;BME280;38154;47.548;18.828;2023-02-13T08:13:17;100829.66;;;15.05;37.05
51239;BME280;38154;47.548;18.828;2023-02-13T08:15:43;100829.28;;;14.83;38.49
51239;BME280;38154;47.548;18.828;2023-02-13T08:18:09;100829.69;;;15.06;37.42
51239;BME280;38154;47.548;18.828;2023-02-13T08:20:35;100826.75;;;15.44;36.82
51239;BME280;38154;47.548;18.828;2023-02-13T08:23:06;100823.34;;;15.51;36.45
51239;BME280;38154;47.548;18.828;2023-02-13T08:25:33;100833.87;;;15.53;36.11
51239;BME280;38154;47.548;18.828;2023-02-13T08:27:59;100825.62;;;15.28;36.54
51239;BME280;38154;47.548;18.828;2023-02-13T08:30:26;100822.91;;;15.20;36.81
51239;BME280;38154;47.548;18.828;2023-02-13T08:32:53;100821.59;;;15.53;36.08
51239;BME280;38154;47.548;18.828;2023-02-13T08:35:19;100834.06;;;15.67;35.46
51239;BME280;38154;47.548;18.828;2023-02-13T08:37:45;100821.22;;;15.87;35.27
51239;BME280;38154;47.548;18.828;2023-02-13T08:40:12;100825.09;;;16.18;34.87
51239;BME280;38154;47.548;18.828;2023-02-13T08:42:38;100832.41;;;16.45;34.54
51239;BME280;38154;47.548;18.828;2023-02-13T08:45:04;100829.94;;;16.62;34.80
51239;BME280;38154;47.548;18.828;2023-02-13T08:47:31;100827.81;;;16.24;34.43
51239;BME280;38154;47.548;18.828;2023-02-13T08:49:57;100826.47;;;16.66;34.54
51239;BME280;38154;47.548;18.828;2023-02-13T08:52:22;100817.81;;;16.80;34.09
51239;BME280;38154;47.548;18.828;2023-02-13T08:54:49;100821.53;;;17.02;33.55
51239;BME280;38154;47.548;18.828;2023-02-13T08:57:15;100819.25;;;16.47;35.00
51239;BME280;38154;47.548;18.828;2023-02-13T08:59:41;100821.97;;;16.55;34.75
51239;BME280;38154;47.548;18.828;2023-02-13T09:02:09;100818.56;;;16.65;35.03
51239;BME280;38154;47.548;18.828;2023-02-13T09:04:35;100826.81;;;17.00;33.84
51239;BME280;38154;47.548;18.828;2023-02-13T09:07:01;100828.22;;;16.64;34.41
51239;BME280;38154;47.548;18.828;2023-02-13T09:09:27;100816.97;;;16.84;34.79
51239;BME280;38154;47.548;18.828;2023-02-13T09:11:53;100825.81;;;16.86;35.56
51239;BME280;38154;47.548;18.828;2023-02-13T09:14:25;100832.09;;;17.03;33.96
51239;BME280;38154;47.548;18.828;2023-02-13T09:16:51;100832.38;;;17.43;34.71
51239;BME280;38154;47.548;18.828;2023-02-13T09:19:17;100831.59;;;17.58;33.74
51239;BME280;38154;47.548;18.828;2023-02-13T09:21:43;100828.56;;;16.98;35.12
51239;BME280;38154;47.548;18.828;2023-02-13T09:24:09;100821.91;;;17.51;35.24
51239;BME280;38154;47.548;18.828;2023-02-13T09:26:35;100836.66;;;17.23;34.06
51239;BME280;38154;47.548;18.828;2023-02-13T09:29:01;100829.72;;;17.39;33.89
51239;BME280;38154;47.548;18.828;2023-02-13T09:31:28;100830.63;;;17.46;33.75
51239;BME280;38154;47.548;18.828;2023-02-13T09:33:54;100832.44;;;17.48;33.98
51239;BME280;38154;47.548;18.828;2023-02-13T09:36:22;100831.88;;;16.82;34.74
51239;BME280;38154;47.548;18.828;2023-02-13T09:38:53;100831.91;;;16.83;35.14
51239;BME280;38154;47.548;18.828;2023-02-13T09:41:23;100827.22;;;16.51;35.82
51239;BME280;38154;47.548;18.828;2023-02-13T09:43:54;100831.00;;;16.81;34.68
51239;BME280;38154;47.548;18.828;2023-02-13T09:46:38;100828.84;;;17.37;34.15
51239;BME280;38154;47.548;18.828;2023-02-13T09:49:12;100830.66;;;17.49;35.03
51239;BME280;38154;47.548;18.828;2023-02-13T09:51:41;100832.53;;;17.68;34.15
51239;BME280;38154;47.548;18.828;2023-02-13T09:54:13;100829.69;;;17.31;34.57
51239;BME280;38154;47.548;18.828;2023-02-13T09:56:50;100834.91;;;17.25;34.65
51239;BME280;38154;47.548;18.828;2023-02-13T10:15:50;100809.81;;;17.92;33.57
51239;BME280;38154;47.548;18.828;2023-02-13T10:18:26;100810.34;;;17.35;35.20
51239;BME280;38154;47.548;18.828;2023-02-13T10:20:59;100805.84;;;17.13;35.12
51239;BME280;38154;47.548;18.828;2023-02-13T10:24:34;100803.78;;;16.84;35.79
51239;BME280;38154;47.548;18.828;2023-02-13T10:26:51;100806.69;;;17.13;35.94
51239;BME280;38154;47.548;18.828;2023-02-13T10:29:26;100806.87;;;16.37;36.99
51239;BME280;38154;47.548;18.828;2023-02-13T10:32:15;100799.84;;;15.62;37.92
51239;BME280;38154;47.548;18.828;2023-02-13T10:34:44;100802.75;;;14.66;40.48
51239;BME280;38154;47.548;18.828;2023-02-13T10:37:18;100795.34;;;13.57;43.23
51239;BME280;38154;47.548;18.828;2023-02-13T10:39:47;100795.28;;;13.15;44.85
51239;BME280;38154;47.548;18.828;2023-02-13T11:01:55;100778.03;;;15.08;41.72
51239;BME280;38154;47.548;18.828;2023-02-13T11:04:22;100777.34;;;15.21;41.03
51239;BME280;38154;47.548;18.828;2023-02-13T11:06:56;100775.94;;;14.86;41.11
51239;BME280;38154;47.548;18.828;2023-02-13T11:09:24;100755.31;;;15.10;40.53
51239;BME280;38154;47.548;18.828;2023-02-13T11:11:51;100756.94;;;14.01;42.74
51239;BME280;38154;47.548;18.828;2023-02-13T11:17:00;100763.69;;;13.88;43.25
51239;BME280;38154;47.548;18.828;2023-02-13T11:19:37;100759.63;;;14.53;42.50
51239;BME280;38154;47.548;18.828;2023-02-13T11:22:10;100761.12;;;14.91;40.76
51239;BME280;38154;47.548;18.828;2023-02-13T11:24:39;100750.44;;;15.39;39.60
51239;BME280;38154;47.548;18.828;2023-02-13T11:27:09;100752.03;;;15.27;40.87
51239;BME280;38154;47.548;18.828;2023-02-13T11:29:55;100746.16;;;15.46;39.73
51239;BME280;38154;47.548;18.828;2023-02-13T11:32:24;100752.09;;;16.02;39.39
51239;BME280;38154;47.548;18.828;2023-02-13T11:34:50;100743.13;;;15.81;39.05
51239;BME280;38154;47.548;18.828;2023-02-13T11:37:25;100744.91;;;15.85;39.00
51239;BME280;38154;47.548;18.828;2023-02-13T11:39:57;100746.81;;;16.00;38.26
51239;BME280;38154;47.548;18.828;2023-02-13T11:42:49;100739.78;;;15.96;37.94
51239;BME280;38154;47.548;18.828;2023-02-13T11:45:21;100735.09;;;15.75;38.35
51239;BME280;38154;47.548;18.828;2023-02-13T11:47:48;100730.09;;;15.25;39.95
51239;BME280;38154;47.548;18.828;2023-02-13T11:50:24;100715.72;;;14.99;40.52
51239;BME280;38154;47.548;18.828;2023-02-13T11:53:26;100716.34;;;14.83;40.72
51239;BME280;38154;47.548;18.828;2023-02-13T11:55:44;100717.44;;;13.94;42.53
51239;BME280;38154;47.548;18.828;2023-02-13T12:00:38;100720.34;;;11.82;47.99
51239;BME280;38154;47.548;18.828;2023-02-13T12:03:25;100719.97;;;11.38;49.78
51239;BME280;38154;47.548;18.828;2023-02-13T12:08:39;100713.75;;;10.50;52.47
51239;BME280;38154;47.548;18.828;2023-02-13T12:13:46;100715.75;;;9.81;55.40
51239;BME280;38154;47.548;18.828;2023-02-13T12:16:29;100705.78;;;9.23;57.35
51239;BME280;38154;47.548;18.828;2023-02-13T12:19:01;100703.97;;;8.75;60.01
51239;BME280;38154;47.548;18.828;2023-02-13T12:24:32;100706.31;;;8.69;61.79
51239;BME280;38154;47.548;18.828;2023-02-13T12:27:09;100700.09;;;8.65;62.46
51239;BME280;38154;47.548;18.828;2023-02-13T12:32:12;100690.47;;;8.42;63.17
51239;BME280;38154;47.548;18.828;2023-02-13T12:45:47;100667.31;;;8.27;65.04
51239;BME280;38154;47.548;18.828;2023-02-13T12:59:32;100658.44;;;8.22;66.68
51239;BME280;38154;47.548;18.828;2023-02-13T13:08:23;100645.66;;;8.05;67.03
51239;BME280;38154;47.548;18.828;2023-02-13T13:11:03;100651.78;;;7.86;67.73
51239;BME280;38154;47.548;18.828;2023-02-13T13:22:31;100645.06;;;7.31;72.18
51239;BME280;38154;47.548;18.828;2023-02-13T13:25:42;100638.13;;;7.11;74.05
51239;BME280;38154;47.548;18.828;2023-02-13T13:28:13;100647.09;;;7.19;74.51
51239;BME280;38154;47.548;18.828;2023-02-13T13:30:40;100642.47;;;7.12;75.80
51239;BME280;38154;47.548;18.828;2023-02-13T13:33:18;100646.41;;;7.03;77.21
51239;BME280;38154;47.548;18.828;2023-02-13T13:38:51;100641.59;;;7.11;76.74
51239;BME280;38154;47.548;18.828;2023-02-13T13:52:30;100633.69;;;6.90;80.18
51239;BME280;38154;47.548;18.828;2023-02-13T13:54:58;100637.13;;;6.89;80.99
51239;BME280;38154;47.548;18.828;2023-02-13T14:05:22;100624.75;;;6.83;82.06
51239;BME280;38154;47.548;18.828;2023-02-13T14:07:52;100623.16;;;6.67;82.76
51239;BME280;38154;47.548;18.828;2023-02-13T14:25:42;100622.47;;;6.72;85.27
51239;BME280;38154;47.548;18.828;2023-02-13T14:28:22;100621.50;;;6.87;85.32
51239;BME280;38154;47.548;18.828;2023-02-13T14:30:50;100631.41;;;7.16;84.23
51239;BME280;38154;47.548;18.828;2023-02-13T14:33:27;100630.59;;;7.36;82.93
51239;BME280;38154;47.548;18.828;2023-02-13T14:36:06;100630.25;;;7.48;82.34
51239;BME280;38154;47.548;18.828;2023-02-13T14:38:34;100636.44;;;7.52;82.35
51239;BME280;38154;47.548;18.828;2023-02-13T14:41:00;100635.16;;;7.42;82.37
51239;BME280;38154;47.548;18.828;2023-02-13T14:43:36;100637.16;;;7.28;83.51
51239;BME280;38154;47.548;18.828;2023-02-13T14:46:21;100640.47;;;7.25;83.63
51239;BME280;38154;47.548;18.828;2023-02-13T14:49:02;100632.50;;;7.21;83.98
51239;BME280;38154;47.548;18.828;2023-02-13T14:51:37;100633.13;;;6.96;84.86
51239;BME280;38154;47.548;18.828;2023-02-13T14:54:23;100633.69;;;6.90;85.19
51239;BME280;38154;47.548;18.828;2023-02-13T14:56:52;100634.56;;;6.71;86.42
51239;BME280;38154;47.548;18.828;2023-02-13T14:59:27;100629.59;;;6.76;86.70
51239;BME280;38154;47.548;18.828;2023-02-13T15:02:18;100635.81;;;6.79;86.44
51239;BME280;38154;47.548;18.828;2023-02-13T15:04:53;100628.03;;;6.79;86.02
51239;BME280;38154;47.548;18.828;2023-02-13T15:07:23;100621.22;;;6.63;86.98
51239;BME280;38154;47.548;18.828;2023-02-13T15:10:39;100624.34;;;6.56;87.38
51239;BME280;38154;47.548;18.828;2023-02-13T15:12:41;100626.41;;;6.63;86.76
51239;BME280;38154;47.548;18.828;2023-02-13T15:15:23;100619.94;;;6.54;87.62
51239;BME280;38154;47.548;18.828;2023-02-13T15:17:59;100621.47;;;6.50;87.73
51239;BME280;38154;47.548;18.828;2023-02-13T15:20:29;100627.25;;;6.44;88.31
51239;BME280;38154;47.548;18.828;2023-02-13T15:22:55;100639.09;;;6.39;88.72
51239;BME280;38154;47.548;18.828;2023-02-13T15:25:33;100636.87;;;6.29;88.90
51239;BME280;38154;47.548;18.828;2023-02-13T15:28:02;100627.88;;;6.39;88.93
51239;BME280;38154;47.548;18.828;2023-02-13T15:30:32;100641.25;;;6.30;89.04